Time;durP1;ratioP1;P1;durP2;ratioP2;P2;SDS_P1;SDS_P2;PMS_P1;PMS_P2;Temp;Humidity;BMP_temperature;BMP_pressure;BME280_temperature;BME280_humidity;BME280_pressure;Samples;Min_cycle;Max_cycle;Signal;HPM_P1;HPM_P2
2022/06/22 00:00:17;;;;;;;6.75;3.20;;;16.10;99.50;;;;;;7341943;19;108106;-87
2022/06/22 00:02:47;;;;;;;6.40;3.85;;;16.10;99.40;;;;;;7340910;19;112948;-86
2022/06/22 00:05:20;;;;;;;12.48;3.88;;;16.10;99.50;;;;;;7342327;19;108281;-86
2022/06/22 00:07:54;;;;;;;7.72;3.88;;;16.10;99.80;;;;;;7340468;19;109160;-87
2022/06/22 00:10:41;;;;;;;6.45;3.65;;;16.00;99.90;;;;;;7342403;19;108323;-87
2022/06/22 00:13:18;;;;;;;9.00;3.87;;;16.00;99.80;;;;;;7346463;19;107690;-87
2022/06/22 00:16:00;;;;;;;8.20;4.00;;;16.00;99.70;;;;;;7344955;19;109106;-87
2022/06/22 00:18:37;;;;;;;5.22;3.53;;;16.00;99.60;;;;;;7344174;19;109518;-87
2022/06/22 00:21:15;;;;;;;7.32;3.50;;;15.90;99.50;;;;;;7343471;19;108096;-87
2022/06/22 00:23:44;;;;;;;8.95;3.88;;;16.00;99.60;;;;;;7344308;19;109259;-87
2022/06/22 00:26:17;;;;;;;8.30;4.20;;;15.90;99.90;;;;;;7344127;19;108590;-87
2022/06/22 00:29:04;;;;;;;7.68;3.67;;;15.80;99.90;;;;;;7342907;19;108816;-87
2022/06/22 00:31:37;;;;;;;6.20;3.50;;;15.70;99.90;;;;;;7341875;19;109280;-87
2022/06/22 00:34:10;;;;;;;8.10;3.92;;;15.50;99.90;;;;;;7341028;19;108018;-88
2022/06/22 00:36:41;;;;;;;5.47;3.63;;;15.50;99.90;;;;;;7346876;19;107885;-87
2022/06/22 00:39:30;;;;;;;7.30;3.17;;;15.60;99.90;;;;;;7343509;19;107615;-87
2022/06/22 00:42:15;;;;;;;7.85;3.35;;;15.60;99.90;;;;;;7341923;19;108552;-87
2022/06/22 00:44:45;;;;;;;5.80;3.60;;;15.70;99.90;;;;;;7341509;19;109018;-87
2022/06/22 00:47:34;;;;;;;7.18;3.65;;;15.80;99.90;;;;;;7339389;19;108525;-85
2022/06/22 00:50:14;;;;;;;7.28;3.38;;;15.80;99.90;;;;;;7338996;19;108014;-87
2022/06/22 00:52:46;;;;;;;8.55;3.85;;;15.70;99.90;;;;;;7342697;19;108770;-87
2022/06/22 00:55:37;;;;;;;6.55;3.80;;;15.60;99.90;;;;;;7341759;19;108234;-87
2022/06/22 00:58:08;;;;;;;7.45;4.68;;;15.50;99.90;;;;;;7343081;19;108010;-88
2022/06/22 01:00:39;;;;;;;10.30;4.55;;;15.30;99.90;;;;;;7348685;19;107847;-88
2022/06/22 01:03:06;;;;;;;6.78;4.80;;;15.30;99.90;;;;;;7344914;19;107473;-86
2022/06/22 01:05:42;;;;;;;11.93;4.80;;;15.20;99.90;;;;;;7345864;19;109222;-86
2022/06/22 01:08:31;;;;;;;8.45;4.22;;;15.30;99.90;;;;;;7339078;19;107146;-86
2022/06/22 01:11:05;;;;;;;11.00;4.40;;;15.30;99.90;;;;;;7342703;19;108707;-87
2022/06/22 01:13:38;;;;;;;4.60;3.83;;;15.20;99.90;;;;;;7343439;19;108254;-88
2022/06/22 01:16:16;;;;;;;5.05;4.30;;;15.20;99.90;;;;;;7342791;19;109821;-87
2022/06/22 01:19:02;;;;;;;7.65;4.82;;;15.20;99.90;;;;;;7341652;19;107483;-87
2022/06/22 01:21:39;;;;;;;5.85;4.20;;;15.20;99.90;;;;;;7340637;19;109101;-86
2022/06/22 01:24:39;;;;;;;6.85;4.57;;;15.20;99.90;;;;;;7345761;19;107364;-87
2022/06/22 01:27:18;;;;;;;7.70;4.28;;;15.20;99.90;;;;;;7340165;19;108736;-86
2022/06/22 01:29:54;;;;;;;5.28;4.18;;;15.30;99.90;;;;;;7340389;19;108673;-87
2022/06/22 01:32:34;;;;;;;9.90;4.40;;;15.20;99.90;;;;;;7340430;19;108238;-87
2022/06/22 01:35:13;;;;;;;8.05;4.32;;;15.20;99.90;;;;;;7339323;19;108982;-87
2022/06/22 01:37:44;;;;;;;10.93;5.10;;;15.30;99.90;;;;;;7342255;19;108136;-88
2022/06/22 01:40:18;;;;;;;7.45;4.70;;;15.30;99.90;;;;;;7341668;19;108320;-87
2022/06/22 01:42:51;;;;;;;12.05;4.82;;;15.20;99.90;;;;;;7340402;19;108647;-86
2022/06/22 01:45:40;;;;;;;14.52;5.82;;;15.20;99.90;;;;;;7340903;19;110590;-87
2022/06/22 01:48:15;;;;;;;10.65;6.22;;;15.20;99.90;;;;;;7344302;19;108373;-88
2022/06/22 01:50:51;;;;;;;12.60;5.82;;;15.20;99.90;;;;;;7340960;19;108409;-86
2022/06/22 01:53:28;;;;;;;6.78;5.45;;;15.10;99.90;;;;;;7339895;19;108476;-86
2022/06/22 01:56:17;;;;;;;10.77;5.70;;;15.10;99.90;;;;;;7341272;19;111641;-87
2022/06/22 01:59:12;;;;;;;11.52;5.70;;;15.10;99.90;;;;;;7341738;19;107858;-87
2022/06/22 02:01:45;;;;;;;7.15;6.00;;;15.10;99.90;;;;;;7340755;19;107984;-87
2022/06/22 02:04:40;;;;;;;8.05;5.25;;;15.00;99.90;;;;;;7341197;19;108944;-87
2022/06/22 02:07:46;;;;;;;8.68;6.38;;;15.10;99.90;;;;;;7338672;19;107964;-87
2022/06/22 02:10:25;;;;;;;8.00;5.75;;;15.10;99.90;;;;;;7349082;19;107509;-87
2022/06/22 02:13:28;;;;;;;12.77;6.10;;;15.10;99.90;;;;;;7348935;19;108091;-86
2022/06/22 02:15:58;;;;;;;11.02;6.75;;;15.10;99.90;;;;;;7347056;19;108419;-88
2022/06/22 02:18:31;;;;;;;9.88;6.18;;;15.10;99.90;;;;;;7347032;19;110091;-87
2022/06/22 02:21:02;;;;;;;12.45;6.25;;;15.10;99.90;;;;;;7348337;19;108328;-86
2022/06/22 02:23:34;;;;;;;12.82;5.30;;;15.10;99.90;;;;;;7347891;19;108257;-86
2022/06/22 02:26:34;;;;;;;13.45;6.55;;;15.10;99.90;;;;;;7348730;19;109208;-88
2022/06/22 02:29:02;;;;;;;9.93;6.28;;;15.10;99.90;;;;;;7343775;19;108119;-87
2022/06/22 02:31:30;;;;;;;11.05;6.25;;;15.10;99.90;;;;;;7346642;19;108263;-86
2022/06/22 02:33:58;;;;;;;7.35;6.28;;;15.10;99.90;;;;;;7349275;19;108916;-86
2022/06/22 02:36:31;;;;;;;14.85;6.72;;;15.00;99.90;;;;;;7348826;19;108578;-87
2022/06/22 02:39:02;;;;;;;13.65;7.40;;;15.10;99.90;;;;;;7346492;19;110096;-88
2022/06/22 02:44:31;;;;;;;9.55;6.70;;;15.00;99.90;;;;;;7348280;19;108799;-87
2022/06/22 02:47:19;;;;;;;12.88;7.25;;;14.90;99.90;;;;;;7347024;19;109348;-86
2022/06/22 02:50:15;;;;;;;11.00;7.75;;;14.80;99.90;;;;;;7348220;19;108048;-86
2022/06/22 02:52:56;;;;;;;13.70;7.82;;;14.80;99.90;;;;;;7347100;19;108575;-87
2022/06/22 02:55:27;;;;;;;13.02;7.95;;;14.80;99.90;;;;;;7347763;19;109376;-88
2022/06/22 02:57:59;;;;;;;17.42;8.45;;;14.80;99.90;;;;;;7351198;19;106992;-87
2022/06/22 03:00:33;;;;;;;13.20;9.23;;;14.90;99.90;;;;;;7348414;19;108637;-86
2022/06/22 03:03:08;;;;;;;11.18;7.90;;;14.90;99.90;;;;;;7348496;19;107190;-86
2022/06/22 03:05:37;;;;;;;14.02;8.88;;;14.80;99.90;;;;;;7349723;19;108326;-86
2022/06/22 03:08:05;;;;;;;11.57;8.77;;;14.80;99.90;;;;;;7348027;19;108735;-87
2022/06/22 03:10:45;;;;;;;18.33;8.98;;;14.80;99.90;;;;;;7349064;19;108652;-87
2022/06/22 03:13:16;;;;;;;12.85;8.52;;;14.70;99.90;;;;;;7348739;19;108118;-87
2022/06/22 03:15:44;;;;;;;15.38;9.75;;;14.70;99.90;;;;;;7348928;19;108751;-86
2022/06/22 03:18:23;;;;;;;11.98;8.95;;;14.70;99.90;;;;;;7348237;19;107960;-87
2022/06/22 03:20:55;;;;;;;11.80;9.07;;;14.70;99.90;;;;;;7354124;19;108726;-87
2022/06/22 03:23:33;;;;;;;18.98;9.00;;;14.70;99.90;;;;;;7347672;19;108222;-86
2022/06/22 03:26:11;;;;;;;15.45;8.57;;;14.70;99.90;;;;;;7347952;19;108386;-87
2022/06/22 03:28:45;;;;;;;17.77;9.13;;;14.80;99.90;;;;;;7343750;19;109119;-87
2022/06/22 03:31:23;;;;;;;17.38;9.95;;;14.80;99.90;;;;;;7346852;19;107997;-86
2022/06/22 03:34:04;;;;;;;14.43;8.45;;;14.80;99.90;;;;;;7343545;19;108272;-87
2022/06/22 03:36:43;;;;;;;13.25;7.65;;;14.80;99.90;;;;;;7347660;19;108907;-89
2022/06/22 03:39:14;;;;;;;10.48;8.27;;;14.80;99.90;;;;;;7345644;19;108070;-86
2022/06/22 03:41:47;;;;;;;17.95;9.13;;;14.90;99.90;;;;;;7342815;19;108627;-87
2022/06/22 03:44:21;;;;;;;10.60;8.85;;;14.90;99.90;;;;;;7349403;19;107677;-87
2022/06/22 03:46:59;;;;;;;15.02;8.10;;;14.90;99.90;;;;;;7345619;19;107244;-87
2022/06/22 03:49:35;;;;;;;15.30;7.82;;;15.10;99.90;;;;;;7342951;19;109263;-87
2022/06/22 03:52:18;;;;;;;15.05;8.60;;;15.40;99.90;;;;;;7345369;19;109378;-87
2022/06/22 03:55:00;;;;;;;15.63;8.93;;;15.40;99.90;;;;;;7345788;19;108956;-86
2022/06/22 03:57:31;;;;;;;14.88;9.57;;;15.30;99.90;;;;;;7346009;19;109047;-88
2022/06/22 03:59:59;;;;;;;20.83;9.88;;;15.10;99.90;;;;;;7344621;19;107404;-86
2022/06/22 04:02:27;;;;;;;17.33;10.05;;;15.10;99.90;;;;;;7345415;19;109818;-87
2022/06/22 04:04:58;;;;;;;17.02;9.98;;;15.10;99.90;;;;;;7341905;19;110205;-87
2022/06/22 04:07:31;;;;;;;14.23;9.57;;;15.10;99.90;;;;;;7345258;19;111437;-87
2022/06/22 04:09:59;;;;;;;17.88;10.75;;;15.00;99.90;;;;;;7345358;19;109008;-87
2022/06/22 04:12:33;;;;;;;17.88;11.32;;;15.00;99.90;;;;;;7341733;19;111057;-87
2022/06/22 04:15:19;;;;;;;12.95;9.75;;;15.00;99.90;;;;;;7342059;19;111737;-87
2022/06/22 04:17:51;;;;;;;16.45;9.88;;;14.90;99.90;;;;;;7345138;19;109223;-87
2022/06/22 04:20:51;;;;;;;17.58;9.95;;;14.90;99.90;;;;;;7344880;19;108501;-87
2022/06/22 04:23:43;;;;;;;13.38;9.60;;;14.90;99.90;;;;;;7343375;19;108563;-87
2022/06/22 04:26:18;;;;;;;17.27;10.38;;;15.00;99.90;;;;;;7343047;19;109094;-87
2022/06/22 04:28:49;;;;;;;16.73;10.85;;;15.00;99.90;;;;;;7345866;19;111239;-87
2022/06/22 04:31:26;;;;;;;12.70;10.48;;;14.90;99.90;;;;;;7342145;19;110668;-87
2022/06/22 04:34:02;;;;;;;18.75;11.73;;;14.90;99.90;;;;;;7336472;19;111629;-88
2022/06/22 04:36:41;;;;;;;18.38;11.65;;;14.90;99.90;;;;;;7340088;19;111059;-87
2022/06/22 04:39:27;;;;;;;16.75;11.00;;;14.90;99.90;;;;;;7340181;19;112836;-87
2022/06/22 04:41:54;;;;;;;20.27;10.90;;;14.90;99.90;;;;;;7340946;19;111717;-88
2022/06/22 04:44:24;;;;;;;15.85;11.38;;;14.90;99.90;;;;;;7341831;19;114933;-87
2022/06/22 04:46:58;;;;;;;20.52;11.45;;;14.90;99.90;;;;;;7341679;19;112149;-88
2022/06/22 04:49:41;;;;;;;22.35;11.90;;;15.10;99.90;;;;;;7338711;19;111512;-87
2022/06/22 04:52:29;;;;;;;20.53;11.37;;;15.10;99.90;;;;;;7345282;19;111883;-87
2022/06/22 04:55:00;;;;;;;14.38;11.15;;;15.10;99.90;;;;;;7338504;19;112520;-87
2022/06/22 04:57:32;;;;;;;15.15;10.98;;;15.10;99.90;;;;;;7338001;19;113861;-87
2022/06/22 05:00:26;;;;;;;13.25;11.02;;;15.20;99.90;;;;;;7339703;19;111188;-87
2022/06/22 05:03:14;;;;;;;18.13;11.27;;;15.20;99.90;;;;;;7339633;19;110905;-87
2022/06/22 05:05:41;;;;;;;13.55;11.40;;;15.30;99.90;;;;;;7339346;19;112131;-86
2022/06/22 05:08:33;;;;;;;17.90;11.15;;;15.30;99.90;;;;;;7337964;19;110546;-86
2022/06/22 05:11:15;;;;;;;21.52;11.52;;;15.40;99.90;;;;;;7337252;19;111023;-86
2022/06/22 05:13:46;;;;;;;15.32;11.35;;;15.40;99.90;;;;;;7340191;19;111157;-86
2022/06/22 05:16:17;;;;;;;17.70;11.68;;;15.50;99.90;;;;;;7343371;19;111329;-87
2022/06/22 05:18:47;;;;;;;20.35;11.45;;;15.60;99.90;;;;;;7336903;19;111202;-87
2022/06/22 05:21:32;;;;;;;15.68;10.85;;;15.70;99.90;;;;;;7339006;19;110610;-87
2022/06/22 05:24:04;;;;;;;17.88;11.10;;;15.80;99.90;;;;;;7339122;19;112395;-87
2022/06/22 05:26:33;;;;;;;15.73;10.93;;;15.80;99.90;;;;;;7338277;19;110758;-87
2022/06/22 05:29:12;;;;;;;13.57;11.18;;;15.90;99.90;;;;;;7333969;19;111438;-85
2022/06/22 05:31:47;;;;;;;15.68;11.18;;;16.00;99.90;;;;;;7338139;19;112131;-86
2022/06/22 05:34:22;;;;;;;13.43;10.27;;;16.10;99.90;;;;;;7335610;19;112245;-86
2022/06/22 05:36:59;;;;;;;15.18;10.70;;;16.20;99.90;;;;;;7339094;19;110694;-87
2022/06/22 05:39:26;;;;;;;16.53;10.57;;;16.30;99.90;;;;;;7342691;19;111582;-87
2022/06/22 05:41:53;;;;;;;16.20;10.30;;;16.30;99.90;;;;;;7339797;19;111399;-87
2022/06/22 05:44:23;;;;;;;15.10;10.35;;;16.50;99.90;;;;;;7335513;19;111479;-88
2022/06/22 05:46:55;;;;;;;17.35;9.40;;;16.60;99.90;;;;;;7338036;19;115246;-87
2022/06/22 05:49:31;;;;;;;14.93;8.95;;;16.70;99.90;;;;;;7340538;19;111643;-88
2022/06/22 05:52:10;;;;;;;13.93;9.35;;;16.70;99.90;;;;;;7341671;19;110110;-87
2022/06/22 05:54:43;;;;;;;10.90;8.68;;;16.80;99.90;;;;;;7341372;19;110938;-87
2022/06/22 05:57:13;;;;;;;12.27;8.73;;;16.90;99.90;;;;;;7341256;19;109080;-88
2022/06/22 05:59:52;;;;;;;13.35;9.52;;;17.00;99.90;;;;;;7340598;19;108682;-88
2022/06/22 06:02:25;;;;;;;14.82;8.38;;;17.10;99.90;;;;;;7347417;19;110228;-87
2022/06/22 06:05:23;;;;;;;14.13;9.07;;;17.20;99.90;;;;;;7341515;19;108549;-87
2022/06/22 06:07:56;;;;;;;14.10;7.75;;;17.30;99.90;;;;;;7339661;19;110297;-86
2022/06/22 06:10:30;;;;;;;12.55;8.13;;;17.40;99.90;;;;;;7339885;19;110307;-87
2022/06/22 06:13:03;;;;;;;13.57;7.88;;;17.50;99.90;;;;;;7340453;19;107130;-87
2022/06/22 06:15:35;;;;;;;13.10;7.78;;;17.60;99.90;;;;;;7340491;19;108398;-86
2022/06/22 06:18:05;;;;;;;11.38;8.05;;;17.70;99.90;;;;;;7338664;19;109065;-86
2022/06/22 06:20:40;;;;;;;11.25;7.40;;;17.70;99.90;;;;;;7340202;19;107796;-85
2022/06/22 06:23:48;;;;;;;19.92;8.40;;;17.80;99.90;;;;;;7340322;19;108741;-85
2022/06/22 06:30:01;;;;;;;8.90;8.00;;;17.90;99.90;;;;;;7331353;19;108839;-84
2022/06/22 06:32:28;;;;;;;14.75;7.75;;;17.90;99.90;;;;;;7332441;19;111257;-86
2022/06/22 06:35:02;;;;;;;12.05;6.95;;;18.00;99.90;;;;;;7328094;19;108548;-85
2022/06/22 06:37:38;;;;;;;11.15;6.93;;;18.10;99.90;;;;;;7334180;19;108508;-84
2022/06/22 06:40:15;;;;;;;12.30;6.68;;;18.20;99.90;;;;;;7331744;19;109080;-85
2022/06/22 06:42:49;;;;;;;13.00;6.93;;;18.20;99.90;;;;;;7336148;19;107644;-86
2022/06/22 06:45:21;;;;;;;9.30;6.80;;;18.30;99.90;;;;;;7333867;19;107806;-86
2022/06/22 06:47:54;;;;;;;10.55;6.70;;;18.30;99.90;;;;;;7340651;19;109800;-85
2022/06/22 06:50:39;;;;;;;13.10;6.80;;;18.40;99.90;;;;;;7333118;19;108627;-85
2022/06/22 06:53:36;;;;;;;11.55;7.10;;;18.50;99.90;;;;;;7337596;19;108947;-85
2022/06/22 06:56:20;;;;;;;10.00;6.95;;;18.50;99.90;;;;;;7342987;19;108678;-85
2022/06/22 06:58:50;;;;;;;11.50;7.05;;;18.60;99.90;;;;;;7341828;19;108256;-87
2022/06/22 07:01:21;;;;;;;12.88;7.38;;;18.60;99.90;;;;;;7344006;19;110441;-85
2022/06/22 07:03:53;;;;;;;11.75;6.57;;;18.70;99.90;;;;;;7343248;19;108283;-85
2022/06/22 07:06:20;;;;;;;15.32;7.25;;;18.70;99.90;;;;;;7343344;19;109582;-84
2022/06/22 07:09:04;;;;;;;10.48;6.63;;;18.80;99.90;;;;;;7342930;19;109095;-84
2022/06/22 07:11:46;;;;;;;14.65;7.25;;;18.90;99.90;;;;;;7347029;19;108064;-84
2022/06/22 07:14:20;;;;;;;15.40;7.18;;;19.00;99.90;;;;;;7341876;19;108918;-84
2022/06/22 07:16:49;;;;;;;15.20;7.63;;;19.10;99.90;;;;;;7343511;19;108073;-85
2022/06/22 07:19:19;;;;;;;12.50;6.47;;;19.20;99.90;;;;;;7335755;19;112372;-84
2022/06/22 07:21:55;;;;;;;13.25;6.28;;;19.40;99.90;;;;;;7341971;19;112441;-83
2022/06/22 07:24:34;;;;;;;14.55;7.13;;;19.50;99.90;;;;;;7343906;19;108592;-83
2022/06/22 07:27:10;;;;;;;11.30;6.57;;;19.60;99.90;;;;;;7341915;19;108393;-83
2022/06/22 07:30:00;;;;;;;8.73;6.97;;;19.70;99.90;;;;;;7337463;19;109753;-83
2022/06/22 07:32:43;;;;;;;11.65;6.18;;;19.80;99.90;;;;;;7339306;19;108321;-84
2022/06/22 07:35:28;;;;;;;9.10;6.00;;;19.80;99.90;;;;;;7345532;19;108143;-83
2022/06/22 07:37:55;;;;;;;9.57;6.05;;;19.70;99.90;;;;;;7342318;19;109218;-83
2022/06/22 07:40:25;;;;;;;11.63;6.38;;;19.80;99.90;;;;;;7345470;19;109142;-84
2022/06/22 07:42:55;;;;;;;18.00;5.70;;;19.90;99.90;;;;;;7344051;19;109190;-83
2022/06/22 07:45:25;;;;;;;6.38;5.00;;;20.00;99.90;;;;;;7345209;19;107499;-83
2022/06/22 07:48:13;;;;;;;14.23;5.80;;;20.20;99.90;;;;;;7347162;19;108186;-83
2022/06/22 07:50:50;;;;;;;8.93;5.15;;;20.30;99.90;;;;;;7344374;19;109427;-84
2022/06/22 07:53:45;;;;;;;8.80;5.10;;;20.40;99.90;;;;;;7343282;19;108348;-83
2022/06/22 07:56:31;;;;;;;12.77;5.30;;;20.50;99.90;;;;;;7345157;19;107115;-84
2022/06/22 07:59:08;;;;;;;10.00;5.00;;;20.50;99.90;;;;;;7348419;19;109265;-83
2022/06/22 08:01:39;;;;;;;10.50;5.28;;;20.60;99.90;;;;;;7344987;19;108358;-83
2022/06/22 08:04:33;;;;;;;9.73;4.63;;;20.70;99.90;;;;;;7344859;19;107931;-83
2022/06/22 08:07:18;;;;;;;13.95;4.63;;;20.80;99.70;;;;;;7345299;19;108441;-84
2022/06/22 08:10:06;;;;;;;14.65;4.22;;;20.90;99.00;;;;;;7343507;19;108236;-84
2022/06/22 08:13:10;;;;;;;7.13;3.75;;;20.90;98.60;;;;;;7343493;19;108975;-84
2022/06/22 08:15:47;;;;;;;9.68;3.90;;;21.00;98.80;;;;;;7344157;19;111348;-84
2022/06/22 08:18:15;;;;;;;9.50;4.00;;;21.10;98.30;;;;;;7342729;19;108598;-84
2022/06/22 08:20:45;;;;;;;6.07;3.40;;;21.20;98.00;;;;;;7345134;19;108927;-84
2022/06/22 08:23:19;;;;;;;6.30;3.45;;;21.20;97.60;;;;;;7350753;19;108033;-83
2022/06/22 08:26:10;;;;;;;7.57;3.60;;;21.30;97.10;;;;;;7342857;19;111890;-83
2022/06/22 08:28:39;;;;;;;8.82;3.55;;;21.40;97.20;;;;;;7345550;19;111442;-83
2022/06/22 08:31:07;;;;;;;8.75;3.63;;;21.50;96.30;;;;;;7341087;19;108320;-84
2022/06/22 08:33:44;;;;;;;6.68;4.20;;;21.50;97.20;;;;;;7341587;19;109161;-83
2022/06/22 08:36:22;;;;;;;6.20;3.92;;;21.50;96.90;;;;;;7344609;19;108855;-84
2022/06/22 08:39:01;;;;;;;8.00;3.80;;;21.60;97.20;;;;;;7340356;19;107255;-85
2022/06/22 08:41:49;;;;;;;6.63;3.80;;;21.70;96.10;;;;;;7345486;19;112275;-84
2022/06/22 08:44:37;;;;;;;8.40;3.53;;;21.80;95.70;;;;;;7348539;19;107885;-83
2022/06/22 08:47:32;;;;;;;6.05;3.40;;;21.80;96.00;;;;;;7343948;19;108225;-85
2022/06/22 08:50:22;;;;;;;5.70;3.17;;;21.90;95.70;;;;;;7340992;19;109188;-84
2022/06/22 08:53:17;;;;;;;7.43;3.65;;;22.00;94.90;;;;;;7343004;19;107945;-84
2022/06/22 08:56:18;;;;;;;9.88;3.25;;;22.10;94.60;;;;;;7343586;19;109786;-84
2022/06/22 08:59:07;;;;;;;11.05;2.83;;;22.20;95.20;;;;;;7342726;19;107967;-84
2022/06/22 09:01:46;;;;;;;18.98;3.28;;;22.50;95.10;;;;;;7343671;19;108666;-83
2022/06/22 09:04:32;;;;;;;7.38;2.67;;;22.60;95.20;;;;;;7342712;19;111854;-86
2022/06/22 09:07:02;;;;;;;7.53;2.15;;;22.70;93.80;;;;;;7343432;19;107497;-84
2022/06/22 09:09:40;;;;;;;11.40;3.13;;;22.70;93.70;;;;;;7349447;19;108579;-83
2022/06/22 09:12:19;;;;;;;18.88;3.80;;;22.80;93.30;;;;;;7342853;19;108481;-84
2022/06/22 09:15:08;;;;;;;29.05;4.60;;;22.90;93.90;;;;;;7340077;19;108446;-84
2022/06/22 09:17:44;;;;;;;17.85;4.10;;;23.00;93.90;;;;;;7342796;19;109304;-84
2022/06/22 09:20:53;;;;;;;23.58;3.83;;;23.20;94.30;;;;;;7343080;19;108298;-85
2022/06/22 09:23:25;;;;;;;;;;;23.40;93.80;;;;;;7343110;19;108595;-84
2022/06/22 09:26:36;;;;;;;11.40;2.75;;;23.40;93.70;;;;;;7345240;19;109251;-83
2022/06/22 09:29:28;;;;;;;20.05;2.70;;;23.60;92.50;;;;;;7339622;19;107887;-84
2022/06/22 09:32:21;;;;;;;25.90;2.85;;;23.70;92.30;;;;;;7340079;19;110964;-85
2022/06/22 09:35:00;;;;;;;46.70;3.30;;;23.70;91.80;;;;;;7341575;19;109234;-83
2022/06/22 09:37:55;;;;;;;20.20;2.30;;;23.80;92.00;;;;;;7339371;19;108247;-85
2022/06/22 09:40:59;;;;;;;31.20;3.17;;;23.90;91.30;;;;;;7338002;19;109028;-85
2022/06/22 09:43:52;;;;;;;19.45;3.10;;;23.90;91.50;;;;;;7338900;19;108044;-84
2022/06/22 09:46:46;;;;;;;10.88;3.30;;;24.10;91.50;;;;;;7337674;19;110993;-84
2022/06/22 09:49:35;;;;;;;10.18;3.00;;;24.10;90.70;;;;;;7338843;19;109347;-84
2022/06/22 09:52:26;;;;;;;12.20;3.15;;;24.00;91.70;;;;;;7339452;19;108155;-84
2022/06/22 09:58:30;;;;;;;19.33;3.42;;;24.30;91.20;;;;;;7338733;19;111923;-84
2022/06/22 10:01:12;;;;;;;8.00;2.92;;;24.40;90.00;;;;;;7344099;19;109071;-85
2022/06/22 10:04:03;;;;;;;6.65;3.22;;;24.20;88.70;;;;;;7338374;19;109116;-85
2022/06/22 10:06:30;;;;;;;7.85;2.97;;;24.10;89.30;;;;;;7343088;19;107962;-85
2022/06/22 10:09:13;;;;;;;5.30;2.80;;;23.90;89.50;;;;;;7341731;19;107392;-86
2022/06/22 10:12:21;;;;;;;11.45;2.85;;;23.90;89.10;;;;;;7340539;19;109279;-85
2022/06/22 10:14:51;;;;;;;9.00;3.45;;;23.90;89.80;;;;;;7338123;19;107905;-87
2022/06/22 10:17:39;;;;;;;5.63;2.53;;;23.90;88.60;;;;;;7337628;19;107380;-84
2022/06/22 10:21:02;;;;;;;9.90;2.50;;;23.80;87.20;;;;;;7335343;19;111485;-85
2022/06/22 10:23:56;;;;;;;12.20;2.10;;;23.90;88.90;;;;;;7337382;19;111759;-85
2022/06/22 10:26:52;;;;;;;8.27;2.05;;;24.10;87.40;;;;;;7341915;19;108647;-86
2022/06/22 10:30:04;;;;;;;19.83;3.10;;;24.30;87.90;;;;;;7333936;19;107929;-85
2022/06/22 10:32:33;;;;;;;30.10;3.67;;;24.70;88.90;;;;;;7340514;19;107815;-85
2022/06/22 10:35:22;;;;;;;9.50;2.70;;;24.60;88.00;;;;;;7336967;19;108312;-86
2022/06/22 10:38:07;;;;;;;;;;;24.80;84.40;;;;;;7339946;19;108916;-86
2022/06/22 10:46:52;;;;;;;9.15;2.13;;;24.70;84.70;;;;;;7341802;19;107670;-85
2022/06/22 10:49:47;;;;;;;8.13;2.38;;;24.80;85.20;;;;;;7343195;19;108781;-86
2022/06/22 10:52:42;;;;;;;24.33;3.25;;;24.90;83.80;;;;;;7346809;19;108986;-84
2022/06/22 10:55:32;;;;;;;6.85;2.20;;;25.00;87.20;;;;;;7338050;19;108584;-86
2022/06/22 10:58:16;;;;;;;33.90;3.20;;;25.20;83.70;;;;;;7342376;19;109001;-86
2022/06/22 11:00:56;;;;;;;4.82;1.90;;;25.40;85.10;;;;;;7343951;19;108015;-85
2022/06/22 11:03:23;;;;;;;18.25;3.53;;;25.40;84.20;;;;;;7343636;19;108289;-85
2022/06/22 11:06:13;;;;;;;7.18;2.60;;;25.60;84.90;;;;;;7343690;19;109330;-85
2022/06/22 11:08:40;;;;;;;7.70;1.83;;;25.60;81.10;;;;;;7347587;19;108714;-84
2022/06/22 11:11:07;;;;;;;5.60;2.22;;;25.60;82.50;;;;;;7346836;19;108487;-83
2022/06/22 11:14:05;;;;;;;8.02;2.47;;;25.60;80.30;;;;;;7351012;19;110291;-83
2022/06/22 11:16:51;;;;;;;;;;;25.70;83.00;;;;;;7348357;19;109279;-84
2022/06/22 11:19:27;;;;;;;18.52;2.83;;;25.70;81.90;;;;;;7349517;19;109042;-83
2022/06/22 11:22:25;;;;;;;8.00;2.20;;;25.90;83.10;;;;;;7348610;19;107463;-81
2022/06/22 11:31:34;;;;;;;12.57;2.35;;;25.90;78.20;;;;;;7348199;19;107939;-92
2022/06/22 11:34:35;;;;;;;10.65;2.30;;;26.00;77.50;;;;;;7351844;19;108195;-94
2022/06/22 11:37:20;;;;;;;6.53;2.17;;;26.00;79.80;;;;;;7357382;19;107808;-93
2022/06/22 11:40:24;;;;;;;5.35;1.80;;;26.10;75.40;;;;;;7355598;19;108284;-88
2022/06/22 11:43:18;;;;;;;5.60;1.63;;;26.00;75.20;;;;;;7345255;19;111372;-89
2022/06/22 11:46:19;;;;;;;8.20;1.50;;;26.10;71.10;;;;;;7351687;19;108103;-91
2022/06/22 11:49:19;;;;;;;7.80;1.60;;;26.20;74.80;;;;;;7350585;19;108642;-93
2022/06/22 11:52:05;;;;;;;16.85;1.83;;;26.20;74.40;;;;;;7343016;19;109052;-85
2022/06/22 11:55:01;;;;;;;15.30;2.53;;;26.40;77.00;;;;;;7345994;19;107986;-90
2022/06/22 11:57:28;;;;;;;10.90;1.92;;;26.60;74.80;;;;;;7350310;19;108254;-91
2022/06/22 12:00:21;;;;;;;3.97;1.30;;;26.60;72.10;;;;;;7348763;19;107942;-87
2022/06/22 12:02:48;;;;;;;8.00;1.17;;;26.60;69.40;;;;;;7347712;19;108003;-89
2022/06/22 12:05:40;;;;;;;9.60;1.90;;;26.60;71.70;;;;;;7349077;19;108238;-87
2022/06/22 12:08:28;;;;;;;15.75;1.67;;;26.80;75.00;;;;;;7346682;19;108800;-91
2022/06/22 12:11:17;;;;;;;11.60;1.88;;;27.10;74.50;;;;;;7345267;19;108607;-88
2022/06/22 12:17:24;;;;;;;9.75;1.60;;;27.40;71.70;;;;;;7346874;19;108125;-90
2022/06/22 12:20:08;;;;;;;8.05;1.60;;;27.40;73.30;;;;;;7349375;19;107621;-90
2022/06/22 12:23:13;;;;;;;6.68;1.40;;;27.50;72.80;;;;;;7348199;19;111405;-90
2022/06/22 12:25:40;;;;;;;4.18;1.77;;;27.70;71.20;;;;;;7347863;19;109768;-89
2022/06/22 12:28:46;;;;;;;5.88;1.67;;;27.70;68.80;;;;;;7346048;19;108314;-92
2022/06/22 12:31:16;;;;;;;16.20;1.42;;;27.70;70.00;;;;;;7354316;19;109425;-90
2022/06/22 12:33:50;;;;;;;6.50;1.55;;;27.80;68.60;;;;;;7346164;19;108474;-88
2022/06/22 12:36:20;;;;;;;4.60;1.30;;;27.80;66.30;;;;;;7349596;19;109346;-93
2022/06/22 12:38:51;;;;;;;11.85;1.90;;;27.80;65.80;;;;;;7348568;19;111181;-93
2022/06/22 12:42:02;;;;;;;11.15;1.75;;;27.80;68.20;;;;;;7350398;19;108159;-90
2022/06/22 12:45:04;;;;;;;5.18;1.40;;;28.00;69.70;;;;;;7347299;19;109127;-93
2022/06/22 12:48:00;;;;;;;10.90;1.70;;;28.20;66.10;;;;;;7346006;19;107728;-88
2022/06/22 12:50:48;;;;;;;7.38;1.60;;;28.40;65.70;;;;;;7347659;19;107482;-88
2022/06/22 12:53:30;;;;;;;3.08;1.17;;;28.50;66.20;;;;;;7351319;19;107966;-93
2022/06/22 12:56:28;;;;;;;4.43;1.40;;;28.60;64.20;;;;;;7355204;19;108411;-90
2022/06/22 12:59:24;;;;;;;23.10;2.10;;;28.40;64.40;;;;;;7346270;19;109589;-93
2022/06/22 13:01:52;;;;;;;4.55;1.40;;;28.60;66.90;;;;;;7348526;19;108298;-91
2022/06/22 13:04:28;;;;;;;4.47;1.30;;;28.70;62.50;;;;;;7346299;19;108080;-90
2022/06/22 13:06:59;;;;;;;7.63;1.58;;;28.60;64.70;;;;;;7348025;19;108167;-91
2022/06/22 13:09:27;;;;;;;4.38;1.40;;;28.40;62.20;;;;;;7348169;19;107886;-90
2022/06/22 13:11:57;;;;;;;5.30;1.33;;;28.50;63.30;;;;;;7344577;19;110175;-91
2022/06/22 13:14:34;;;;;;;2.30;1.30;;;28.50;61.80;;;;;;7350625;19;108226;-93
2022/06/22 13:17:17;;;;;;;3.67;1.48;;;28.30;62.00;;;;;;7348119;19;108191;-91
2022/06/22 13:20:11;;;;;;;4.07;1.30;;;28.20;62.40;;;;;;7352474;19;108007;-90
2022/06/22 13:23:02;;;;;;;8.68;1.70;;;28.20;62.80;;;;;;7347755;19;109431;-92
2022/06/22 13:25:34;;;;;;;5.60;1.50;;;28.20;63.50;;;;;;7347482;19;108488;-89
2022/06/22 13:28:29;;;;;;;4.10;1.25;;;28.40;64.50;;;;;;7344596;19;110291;-90
2022/06/22 13:31:03;;;;;;;4.25;1.13;;;28.60;61.90;;;;;;7344384;19;108102;-89
2022/06/22 13:33:46;;;;;;;14.20;1.85;;;28.70;63.10;;;;;;7343372;19;108895;-90
2022/06/22 13:36:32;;;;;;;3.35;1.30;;;29.00;63.90;;;;;;7344811;19;108164;-90
2022/06/22 13:39:38;;;;;;;16.75;1.52;;;29.20;62.60;;;;;;7345296;19;108149;-88
2022/06/22 13:42:17;;;;;;;3.08;1.50;;;29.20;62.50;;;;;;7348385;19;108045;-90
2022/06/22 13:45:02;;;;;;;12.63;1.33;;;29.20;61.40;;;;;;7343901;19;107150;-90
2022/06/22 13:47:35;;;;;;;21.27;2.30;;;29.40;62.50;;;;;;7345219;19;108277;-89
2022/06/22 13:50:49;;;;;;;6.05;1.48;;;29.60;63.20;;;;;;7342107;19;108414;-88
2022/06/22 13:53:32;;;;;;;6.90;1.60;;;29.80;60.10;;;;;;7340142;19;108230;-85
2022/06/22 13:56:14;;;;;;;5.47;1.95;;;29.70;59.80;;;;;;7342084;19;108259;-86
2022/06/22 13:58:47;;;;;;;6.20;2.13;;;29.80;61.80;;;;;;7342247;19;109075;-91
2022/06/22 14:01:35;;;;;;;29.13;2.65;;;29.80;58.60;;;;;;7346978;19;108491;-90
2022/06/22 14:04:28;;;;;;;5.57;1.52;;;29.80;62.50;;;;;;7345361;19;108723;-91